Time;durP1;ratioP1;P1;durP2;ratioP2;P2;SDS_P1;SDS_P2;PMS_P1;PMS_P2;Temp;Humidity;BMP_temperature;BMP_pressure;BME280_temperature;BME280_humidity;BME280_pressure;Samples;Min_cycle;Max_cycle;Signal;HPM_P1;HPM_P2
2023/12/06 00:02:02;;;;;;;23.42;13.23;;;;;;;0.05;100.00;101417.41;10461220;28;20071;-65
2023/12/06 00:07:03;;;;;;;23.05;11.63;;;;;;;0.18;100.00;101439.38;10461784;28;20106;-65
2023/12/06 00:12:04;;;;;;;22.30;13.18;;;;;;;0.07;100.00;101420.78;10452187;28;20047;-66
2023/12/06 00:17:05;;;;;;;26.05;14.07;;;;;;;0.01;100.00;101421.09;10453444;28;20045;-66
2023/12/06 00:22:06;;;;;;;23.23;14.20;;;;;;;0.00;100.00;101417.63;10435024;28;20057;-66
2023/12/06 00:27:07;;;;;;;22.67;13.15;;;;;;;-0.10;100.00;101398.09;10423616;28;20049;-66
2023/12/06 00:32:07;;;;;;;21.63;13.15;;;;;;;-0.02;100.00;101407.25;10458991;28;20037;-66
2023/12/06 00:37:08;;;;;;;24.35;14.02;;;;;;;0.01;100.00;101408.88;10459274;28;20041;-66
2023/12/06 00:42:09;;;;;;;23.88;14.07;;;;;;;-0.01;100.00;101406.31;10459517;28;20116;-66
2023/12/06 00:47:10;;;;;;;22.92;13.30;;;;;;;-0.04;100.00;101392.56;10440606;28;20520;-66
2023/12/06 00:52:10;;;;;;;22.95;12.50;;;;;;;-0.05;100.00;101404.78;10418896;28;20041;-66
2023/12/06 00:57:11;;;;;;;21.27;13.55;;;;;;;-0.65;100.00;101315.41;10417371;28;20064;-65
2023/12/06 01:02:12;;;;;;;23.77;12.52;;;;;;;-0.39;100.00;101365.53;10416030;28;20509;-66
2023/12/06 01:07:13;;;;;;;19.65;11.82;;;;;;;-0.33;100.00;101353.03;10417329;28;20405;-66
2023/12/06 01:12:14;;;;;;;19.77;11.55;;;;;;;-0.13;100.00;101404.28;10416933;28;20445;-66
2023/12/06 01:17:15;;;;;;;23.83;13.18;;;;;;;-0.49;100.00;101349.44;10416752;28;20041;-66
2023/12/06 01:22:16;;;;;;;22.15;12.40;;;;;;;-0.22;100.00;101362.97;10416361;28;20057;-66
2023/12/06 01:27:16;;;;;;;19.77;10.75;;;;;;;-0.15;100.00;101372.22;10414910;28;20044;-66
2023/12/06 01:32:17;;;;;;;15.68;8.68;;;;;;;-0.17;100.00;101389.72;10415974;28;20041;-66
2023/12/06 01:37:18;;;;;;;22.08;11.88;;;;;;;-0.21;100.00;101374.25;10416421;28;20041;-66
2023/12/06 01:42:19;;;;;;;18.20;10.82;;;;;;;-0.84;100.00;101267.59;10415970;28;20045;-66
2023/12/06 01:47:22;;;;;;;22.33;12.10;;;;;;;-0.27;100.00;101359.72;10415783;28;20037;-66
2023/12/06 01:52:24;;;;;;;24.75;11.80;;;;;;;-0.27;100.00;101364.94;10415371;28;20390;-66
2023/12/06 01:57:27;;;;;;;30.60;12.45;;;;;;;-0.56;100.00;101325.41;10414954;28;20049;-66
2023/12/06 02:02:28;;;;;;;25.25;13.70;;;;;;;-0.27;100.00;101375.38;10414258;28;20091;-66
2023/12/06 02:07:29;;;;;;;19.65;12.38;;;;;;;-0.52;100.00;101339.16;10414299;28;20037;-67
2023/12/06 02:12:31;;;;;;;20.70;11.18;;;;;;;-0.35;100.00;101348.81;10425703;28;20456;-66
2023/12/06 02:17:32;;;;;;;21.77;12.25;;;;;;;-0.52;100.00;101337.38;10455126;28;20045;-66
2023/12/06 02:22:34;;;;;;;20.25;11.57;;;;;;;-0.56;100.00;101325.41;10454993;28;20061;-66
2023/12/06 02:27:35;;;;;;;22.60;12.88;;;;;;;-0.25;100.00;101368.31;10454077;28;20136;-66
2023/12/06 02:32:36;;;;;;;17.40;8.15;;;;;;;-0.51;100.00;101305.16;10455178;28;20127;-66
2023/12/06 02:37:40;;;;;;;17.15;11.02;;;;;;;-0.26;100.00;101357.03;10455387;28;20044;-65
2023/12/06 02:42:41;;;;;;;17.00;10.20;;;;;;;-0.30;100.00;101354.63;10438091;28;20037;-66
2023/12/06 02:47:42;;;;;;;19.73;11.40;;;;;;;-0.31;100.00;101366.00;10418082;28;20035;-66
2023/12/06 02:52:43;;;;;;;19.27;11.88;;;;;;;-0.25;100.00;101384.84;10409813;28;20567;-67
2023/12/06 02:57:43;;;;;;;24.67;11.43;;;;;;;-0.15;100.00;101394.84;10406901;28;20042;-66
2023/12/06 03:02:44;;;;;;;19.00;11.10;;;;;;;-0.08;100.00;101391.88;10406641;28;20051;-65
2023/12/06 03:07:45;;;;;;;15.77;9.35;;;;;;;-0.10;100.00;101398.94;10411116;28;20051;-65
2023/12/06 03:12:46;;;;;;;17.27;10.55;;;;;;;-0.58;100.00;101323.78;10408368;28;20048;-68
2023/12/06 03:17:46;;;;;;;17.88;10.95;;;;;;;-0.26;100.00;101387.53;10407151;28;20045;-67
2023/12/06 03:22:47;;;;;;;16.25;10.63;;;;;;;-0.20;100.00;101402.06;10411468;28;20049;-67
2023/12/06 03:27:48;;;;;;;15.75;9.73;;;;;;;-0.31;100.00;101400.78;10417827;28;20037;-68
2023/12/06 03:32:49;;;;;;;16.05;10.48;;;;;;;-0.64;100.00;101351.03;10420430;28;20041;-68
2023/12/06 03:37:50;;;;;;;14.88;9.40;;;;;;;-0.39;100.00;101392.50;10426831;28;20199;-66
2023/12/06 03:42:51;;;;;;;17.05;9.23;;;;;;;-0.66;100.00;101346.78;10444956;28;20125;-67
2023/12/06 03:47:51;;;;;;;18.77;10.80;;;;;;;-0.54;100.00;101367.09;10461225;28;20037;-67
2023/12/06 03:52:52;;;;;;;17.88;9.40;;;;;;;-0.39;100.00;101389.00;10460866;28;20093;-68
2023/12/06 03:57:53;;;;;;;18.42;10.48;;;;;;;-0.67;100.00;101334.66;10461231;28;20056;-68
2023/12/06 04:02:54;;;;;;;17.60;9.95;;;;;;;-0.50;100.00;101385.16;10460238;28;20048;-67
2023/12/06 04:07:55;;;;;;;23.90;11.13;;;;;;;-0.66;100.00;101368.50;10459905;28;20485;-66
2023/12/06 04:12:55;;;;;;;18.52;10.82;;;;;;;-0.89;100.00;101324.38;10459510;28;20036;-67
2023/12/06 04:17:56;;;;;;;20.60;10.82;;;;;;;-0.73;100.00;101344.47;10458140;28;20128;-67
2023/12/06 04:22:57;;;;;;;19.45;11.30;;;;;;;-0.67;100.00;101348.56;10459825;28;20524;-68
2023/12/06 04:27:58;;;;;;;20.27;11.52;;;;;;;-0.86;100.00;101330.31;10459378;28;20037;-67
2023/12/06 04:32:59;;;;;;;23.38;11.23;;;;;;;-0.59;100.00;101371.69;10459291;28;20412;-68
2023/12/06 04:38:00;;;;;;;18.05;11.10;;;;;;;-0.56;100.00;101374.16;10458092;28;20037;-68
2023/12/06 04:43:01;;;;;;;17.75;10.73;;;;;;;-0.66;100.00;101362.44;10440004;28;20033;-68
2023/12/06 04:48:02;;;;;;;18.52;9.57;;;;;;;-0.63;100.00;101406.66;10456622;28;20140;-68
2023/12/06 04:53:03;;;;;;;16.02;10.20;;;;;;;-0.74;100.00;101396.72;10458307;28;20051;-67
2023/12/06 04:58:04;;;;;;;21.02;9.93;;;;;;;-0.78;100.00;101382.97;10458171;28;20045;-67
2023/12/06 05:03:06;;;;;;;18.65;9.95;;;;;;;-0.58;100.00;101397.72;10458765;28;20182;-67
2023/12/06 05:08:07;;;;;;;17.55;9.88;;;;;;;-1.18;100.00;101314.34;10458244;28;20500;-67
2023/12/06 05:13:08;;;;;;;17.75;10.68;;;;;;;-0.84;100.00;101361.53;10458084;28;20076;-67
2023/12/06 05:18:09;;;;;;;20.13;10.18;;;;;;;-0.72;100.00;101387.03;10457367;28;20036;-67
2023/12/06 05:23:09;;;;;;;18.98;10.90;;;;;;;-0.58;100.00;101404.69;10458267;28;20057;-67
2023/12/06 05:28:10;;;;;;;17.98;10.60;;;;;;;-0.64;100.00;101392.78;10458054;28;20087;-67
2023/12/06 05:33:11;;;;;;;19.15;11.13;;;;;;;-0.64;100.00;101397.16;10457396;28;20500;-67
2023/12/06 05:38:12;;;;;;;20.25;9.98;;;;;;;-0.58;100.00;101397.72;10456012;28;20088;-67
2023/12/06 05:43:13;;;;;;;17.20;10.45;;;;;;;-0.48;100.00;101391.16;10457796;28;20130;-67
2023/12/06 05:48:14;;;;;;;16.38;9.77;;;;;;;-0.49;100.00;101399.88;10456520;28;20094;-68
2023/12/06 05:53:14;;;;;;;17.38;9.55;;;;;;;-0.78;100.00;101341.25;10456542;28;20048;-67
2023/12/06 05:58:15;;;;;;;18.38;9.10;;;;;;;-0.38;100.00;101393.34;10456310;28;20045;-68
2023/12/06 06:03:16;;;;;;;14.60;9.10;;;;;;;-0.30;100.00;101386.84;10456102;28;20076;-69
2023/12/06 06:08:17;;;;;;;9.10;5.97;;;;;;;-0.19;100.00;101393.31;10455827;28;20493;-67
2023/12/06 06:13:18;;;;;;;14.35;7.90;;;;;;;-0.15;100.00;101390.50;10455184;28;20044;-67
2023/12/06 06:18:18;;;;;;;15.38;7.90;;;;;;;-0.14;100.00;101392.16;10455483;28;20492;-67
2023/12/06 06:23:19;;;;;;;22.50;8.95;;;;;;;-0.08;100.00;101373.59;10455603;28;20061;-67
2023/12/06 06:28:20;;;;;;;15.70;8.55;;;;;;;0.00;100.00;101388.91;10454402;28;20435;-67
2023/12/06 06:33:21;;;;;;;12.20;7.82;;;;;;;-0.25;100.00;101332.59;10455029;28;20036;-67
2023/12/06 06:38:23;;;;;;;12.27;7.88;;;;;;;0.06;100.00;101375.53;10454144;28;20060;-67
2023/12/06 06:43:36;;;;;;;14.18;6.90;;;;;;;-0.21;100.00;101328.06;10454858;28;20041;-67
2023/12/06 06:48:37;;;;;;;14.00;8.00;;;;;;;-0.30;100.00;101331.13;10455201;28;20148;-67
2023/12/06 06:53:38;;;;;;;15.63;8.98;;;;;;;-0.01;100.00;101381.97;10455239;28;20136;-67
2023/12/06 06:58:39;;;;;;;15.93;8.65;;;;;;;-0.13;100.00;101367.72;10454582;28;20479;-67
2023/12/06 07:03:40;;;;;;;19.92;10.00;;;;;;;-0.10;100.00;101375.41;10451955;28;20131;-67
2023/12/06 07:08:41;;;;;;;18.67;9.20;;;;;;;-0.11;100.00;101355.47;10454182;28;20040;-67
2023/12/06 07:13:41;;;;;;;23.75;9.23;;;;;;;-0.35;100.00;101315.72;10455112;28;20071;-67
2023/12/06 07:18:44;;;;;;;17.20;9.95;;;;;;;-0.02;100.00;101362.00;10453959;28;20052;-67
2023/12/06 07:23:45;;;;;;;11.18;7.05;;;;;;;-0.09;100.00;101342.31;10453501;28;20049;-67
2023/12/06 07:28:46;;;;;;;19.08;9.98;;;;;;;0.04;100.00;101345.19;10453322;28;20041;-67
2023/12/06 07:33:50;;;;;;;17.15;7.95;;;;;;;0.04;100.00;101324.28;10454460;28;20037;-67
2023/12/06 07:38:51;;;;;;;11.90;7.15;;;;;;;-0.19;100.00;101265.34;10454067;28;20049;-67
2023/12/06 07:43:52;;;;;;;13.52;8.65;;;;;;;0.19;100.00;101321.75;10454178;28;20035;-67
2023/12/06 07:48:52;;;;;;;9.45;6.15;;;;;;;0.11;100.00;101300.38;10453479;28;20135;-67
2023/12/06 07:53:56;;;;;;;9.82;5.65;;;;;;;-0.05;100.00;101295.09;10453332;28;20049;-68
2023/12/06 07:58:57;;;;;;;10.23;6.65;;;;;;;-0.39;100.00;101232.38;10452250;28;20043;-67
2023/12/06 08:03:58;;;;;;;12.02;6.93;;;;;;;0.01;100.00;101282.66;10452625;28;20037;-67
2023/12/06 08:09:00;;;;;;;10.55;6.35;;;;;;;-0.30;100.00;101239.75;10451186;28;20041;-68
2023/12/06 08:14:01;;;;;;;14.15;6.53;;;;;;;-0.18;100.00;101265.28;10457340;28;20479;-68
2023/12/06 08:19:03;;;;;;;9.80;6.38;;;;;;;-0.21;100.00;101254.13;10460034;28;20421;-68
2023/12/06 08:24:05;;;;;;;12.70;7.25;;;;;;;-0.19;100.00;101258.34;10461003;28;20053;-68
2023/12/06 08:29:06;;;;;;;13.95;7.68;;;;;;;-0.20;100.00;101256.66;10459831;28;20041;-66
2023/12/06 08:34:07;;;;;;;8.48;4.60;;;;;;;-0.08;100.00;101239.53;10460238;28;20048;-67
2023/12/06 08:39:08;;;;;;;5.22;3.17;;;;;;;-0.14;100.00;101217.19;10460051;28;20037;-68
2023/12/06 08:44:08;;;;;;;7.85;4.60;;;;;;;-0.29;100.00;101210.97;10459907;28;20170;-68
2023/12/06 08:49:09;;;;;;;10.93;5.15;;;;;;;-0.57;100.00;101164.53;10458566;28;20402;-68
2023/12/06 08:54:10;;;;;;;13.80;6.70;;;;;;;-0.35;100.00;101189.56;10457769;28;20048;-67
2023/12/06 08:59:10;;;;;;;10.13;6.80;;;;;;;-0.17;100.00;101225.19;10459279;28;20048;-68
2023/12/06 09:04:11;;;;;;;10.48;6.80;;;;;;;0.05;100.00;101230.16;10458239;28;20041;-68
2023/12/06 09:09:12;;;;;;;10.32;5.70;;;;;;;-0.31;100.00;101162.38;10458379;28;20092;-67
2023/12/06 09:14:13;;;;;;;15.45;7.15;;;;;;;0.02;100.00;101204.19;10458690;28;20530;-68
2023/12/06 09:19:14;;;;;;;11.13;7.45;;;;;;;-0.05;100.00;101190.59;10458260;28;20065;-68
2023/12/06 09:24:14;;;;;;;8.80;5.47;;;;;;;-0.01;100.00;101194.72;10457644;28;20061;-68
2023/12/06 09:29:15;;;;;;;12.60;7.72;;;;;;;-0.08;100.00;101179.47;10457853;28;20407;-68
2023/12/06 09:34:16;;;;;;;8.73;4.97;;;;;;;-0.11;100.00;101170.03;10456665;28;20068;-68
2023/12/06 09:39:20;;;;;;;14.18;8.60;;;;;;;-0.16;100.00;101156.34;10455891;28;20049;-68
2023/12/06 09:44:21;;;;;;;18.92;9.57;;;;;;;-0.41;100.00;101111.56;10456884;28;20611;-67
2023/12/06 09:49:22;;;;;;;15.13;9.05;;;;;;;-0.02;100.00;101164.31;10455061;28;20045;-67
2023/12/06 09:54:22;;;;;;;17.85;7.20;;;;;;;-0.06;100.00;101151.50;10455714;28;20037;-67
2023/12/06 09:59:23;;;;;;;16.13;9.55;;;;;;;-0.12;100.00;101155.28;10456216;28;20044;-68
2023/12/06 10:04:25;;;;;;;11.27;8.07;;;;;;;0.08;100.00;101145.56;10455944;28;20516;-68
2023/12/06 10:09:26;;;;;;;16.45;10.00;;;;;;;0.05;100.00;101137.88;10455770;28;20443;-67
2023/12/06 10:14:26;;;;;;;14.25;8.25;;;;;;;0.10;100.00;101134.09;10455728;28;20045;-67
2023/12/06 10:19:28;;;;;;;15.00;9.90;;;;;;;0.02;100.00;101099.69;10454683;28;20505;-67
2023/12/06 10:24:29;;;;;;;20.50;9.55;;;;;;;-0.07;100.00;101069.69;10454023;28;20056;-67
2023/12/06 10:29:32;;;;;;;17.52;12.60;;;;;;;0.09;100.00;101077.56;10454837;28;20045;-67
2023/12/06 10:34:35;;;;;;;12.37;8.83;;;;;;;0.21;100.00;101092.56;10454310;28;20055;-67
2023/12/06 10:39:38;;;;;;;21.38;12.45;;;;;;;0.25;100.00;101088.00;10453101;28;20041;-68
2023/12/06 10:44:39;;;;;;;116.38;69.70;;;;;;;0.30;100.00;101062.47;10453521;28;20032;-67
2023/12/06 10:49:43;;;;;;;102.30;65.00;;;;;;;0.30;100.00;101059.88;10454773;28;20047;-68
2023/12/06 10:54:46;;;;;;;26.27;19.13;;;;;;;-0.19;100.00;100955.44;10453692;28;20399;-68
2023/12/06 10:59:47;;;;;;;25.08;17.15;;;;;;;0.48;100.00;101049.28;10454587;28;20076;-66
2023/12/06 11:04:52;;;;;;;33.05;22.77;;;;;;;0.59;100.00;101052.16;10453794;28;20069;-68
2023/12/06 11:10:24;;;;;;;21.52;13.10;;;;;;;0.60;100.00;101054.69;10453006;28;20039;-68
2023/12/06 11:15:42;;;;;;;21.30;15.70;;;;;;;0.29;100.00;100985.00;10454035;28;20096;-68
2023/12/06 11:20:43;;;;;;;29.23;19.83;;;;;;;0.42;100.00;100995.63;10453449;28;20041;-67
2023/12/06 11:25:45;;;;;;;39.15;26.63;;;;;;;0.44;100.00;100985.91;10453472;28;20053;-68
2023/12/06 11:30:55;;;;;;;25.63;18.77;;;;;;;0.84;100.00;101031.53;10452469;28;20048;-68
2023/12/06 11:35:56;;;;;;;17.40;12.48;;;;;;;0.84;100.00;101021.06;10451779;28;20067;-68
2023/12/06 11:40:58;;;;;;;27.55;18.35;;;;;;;0.58;100.00;100985.97;10453716;28;20033;-68
2023/12/06 11:46:08;;;;;;;20.90;13.98;;;;;;;0.62;100.00;100968.31;10454777;28;20094;-68
2023/12/06 11:51:23;;;;;;;20.30;14.57;;;;;;;0.90;100.00;101012.88;10460181;28;20037;-68
2023/12/06 11:56:25;;;;;;;19.88;14.38;;;;;;;0.71;100.00;100970.38;10459924;28;20045;-67
2023/12/06 12:01:26;;;;;;;23.23;15.30;;;;;;;0.87;100.00;100989.50;10459378;28;20045;-68
2023/12/06 12:06:29;;;;;;;26.05;17.77;;;;;;;0.96;100.00;100992.50;10461008;28;20044;-68
2023/12/06 12:11:33;;;;;;;16.73;11.85;;;;;;;0.64;100.00;100935.09;10459658;28;20037;-68
2023/12/06 12:16:34;;;;;;;13.55;10.88;;;;;;;0.76;100.00;100949.22;10459836;28;20459;-69
2023/12/06 12:21:35;;;;;;;11.82;10.32;;;;;;;1.03;100.00;100988.59;10454671;28;20049;-68
2023/12/06 12:26:37;;;;;;;11.23;8.68;;;;;;;1.05;100.00;100982.34;10431514;28;20151;-68
2023/12/06 12:31:38;;;;;;;10.15;7.13;;;;;;;0.80;100.00;100948.94;10459906;28;20045;-69
2023/12/06 12:36:39;;;;;;;16.45;9.95;;;;;;;1.14;100.00;100994.03;10459002;28;20049;-68
2023/12/06 12:41:40;;;;;;;14.70;10.60;;;;;;;1.19;100.00;100984.13;10459118;28;20040;-69
2023/12/06 12:46:41;;;;;;;14.75;10.55;;;;;;;1.19;100.00;100986.72;10458911;28;20033;-69
2023/12/06 12:51:42;;;;;;;15.30;9.65;;;;;;;1.24;100.00;100979.47;10458741;28;20515;-68
2023/12/06 12:56:43;;;;;;;20.48;12.05;;;;;;;1.25;100.00;100962.81;10458716;28;20106;-68
2023/12/06 13:01:44;;;;;;;13.88;9.98;;;;;;;1.39;100.00;100969.00;10456898;28;20128;-67
2023/12/06 13:06:46;;;;;;;15.68;10.57;;;;;;;1.57;100.00;100965.25;10458532;28;20124;-70
2023/12/06 13:11:47;;;;;;;17.02;9.23;;;;;;;1.65;100.00;100959.53;10458401;28;20072;-68
2023/12/06 13:16:49;;;;;;;15.65;8.15;;;;;;;1.68;100.00;100951.50;10458361;28;20500;-69
2023/12/06 13:21:50;;;;;;;11.65;6.60;;;;;;;1.43;100.00;100892.78;10457739;28;20108;-69
2023/12/06 13:26:51;;;;;;;20.35;9.85;;;;;;;1.79;100.00;100949.84;10457806;28;20127;-69
2023/12/06 13:31:51;;;;;;;11.68;7.13;;;;;;;1.47;100.00;100882.97;10457073;28;20207;-68
2023/12/06 13:36:53;;;;;;;14.45;9.18;;;;;;;1.78;100.00;100929.00;10457386;28;20040;-69
2023/12/06 13:41:54;;;;;;;13.77;7.53;;;;;;;1.97;100.00;100942.59;10456943;28;20048;-69
2023/12/06 13:46:55;;;;;;;16.63;7.93;;;;;;;1.96;100.00;100914.72;10457529;28;20040;-69
2023/12/06 13:51:56;;;;;;;11.35;8.00;;;;;;;2.20;100.00;100925.41;10456324;28;20405;-69
2023/12/06 13:56:57;;;;;;;9.45;6.65;;;;;;;2.10;100.00;100873.72;10455969;28;20091;-69
2023/12/06 14:01:58;;;;;;;15.73;8.80;;;;;;;2.49;100.00;100922.66;10456014;28;20036;-71
2023/12/06 14:06:59;;;;;;;11.35;7.25;;;;;;;2.57;100.00;100911.66;10456186;28;20098;-71
2023/12/06 14:12:03;;;;;;;15.52;8.75;;;;;;;2.62;100.00;100913.03;10442740;28;20409;-69
2023/12/06 14:17:03;;;;;;;13.02;8.30;;;;;;;2.67;100.00;100905.69;10456101;28;20063;-69
2023/12/06 14:22:04;;;;;;;20.23;8.65;;;;;;;2.67;100.00;100895.19;10455084;28;20060;-71
2023/12/06 14:27:06;;;;;;;10.98;6.95;;;;;;;2.72;100.00;100908.84;10442303;28;20037;-69
2023/12/06 14:32:06;;;;;;;16.45;10.32;;;;;;;2.74;100.00;100900.88;10455276;28;20519;-69
2023/12/06 14:37:07;;;;;;;18.45;11.80;;;;;;;2.83;100.00;100910.72;10453331;28;20052;-68
2023/12/06 14:42:08;;;;;;;14.77;7.57;;;;;;;2.86;100.00;100910.53;10454590;28;20037;-68
2023/12/06 14:47:09;;;;;;;16.70;8.35;;;;;;;2.64;100.00;100852.59;10455520;28;20123;-69
2023/12/06 14:52:10;;;;;;;18.77;7.97;;;;;;;2.91;100.00;100911.06;10454107;28;20055;-70
2023/12/06 14:57:11;;;;;;;12.98;7.00;;;;;;;2.99;100.00;100897.41;10454468;28;20064;-69
2023/12/06 15:02:13;;;;;;;16.63;7.43;;;;;;;2.55;100.00;100834.88;10453816;28;20072;-69
2023/12/06 15:07:14;;;;;;;17.48;7.95;;;;;;;2.94;100.00;100887.22;10454412;28;20047;-70
2023/12/06 15:12:15;;;;;;;12.20;6.88;;;;;;;3.03;100.00;100898.06;10452464;28;20057;-68
2023/12/06 15:17:17;;;;;;;12.25;6.13;;;;;;;3.04;100.00;100907.59;10454168;28;20451;-69
2023/12/06 15:22:18;;;;;;;10.05;4.85;;;;;;;2.67;100.00;100832.25;10458065;28;20059;-71
2023/12/06 15:27:18;;;;;;;8.93;4.15;;;;;;;3.02;100.00;100875.34;10462866;28;20049;-69
2023/12/06 15:32:19;;;;;;;10.32;6.40;;;;;;;2.81;100.00;100862.75;10462075;28;20032;-69
2023/12/06 15:37:20;;;;;;;11.48;7.20;;;;;;;2.69;100.00;100834.75;10461184;28;20041;-69
2023/12/06 15:42:22;;;;;;;11.25;5.32;;;;;;;2.43;100.00;100774.44;10462525;28;20512;-69
2023/12/06 15:47:22;;;;;;;11.10;5.43;;;;;;;2.96;100.00;100864.34;10457340;28;20053;-70
2023/12/06 15:52:29;;;;;;;13.00;5.80;;;;;;;3.00;100.00;100885.97;10457236;28;20041;-69
2023/12/06 15:57:42;;;;;;;12.50;6.40;;;;;;;2.60;100.00;100812.59;10459344;28;20060;-72
2023/12/06 16:02:47;;;;;;;10.00;4.97;;;;;;;2.85;100.00;100864.25;10459302;28;20501;-73
2023/12/06 16:07:55;;;;;;;8.40;5.17;;;;;;;2.84;100.00;100866.97;10459000;28;20066;-72
2023/12/06 16:12:58;;;;;;;11.65;4.65;;;;;;;2.82;100.00;100869.72;10457788;28;20284;-73
2023/12/06 16:18:02;;;;;;;7.07;4.07;;;;;;;2.82;100.00;100867.09;10459251;28;20040;-74
2023/12/06 16:23:04;;;;;;;8.50;4.78;;;;;;;2.70;100.00;100846.94;10457655;28;20409;-72
2023/12/06 16:28:09;;;;;;;10.93;5.55;;;;;;;2.76;100.00;100857.00;10459714;28;20053;-69
2023/12/06 16:33:16;;;;;;;9.43;5.38;;;;;;;2.83;100.00;100860.03;10458277;28;20052;-68
2023/12/06 16:38:26;;;;;;;11.13;6.03;;;;;;;2.84;100.00;100872.22;10457172;28;20040;-69
2023/12/06 16:43:29;;;;;;;8.13;3.78;;;;;;;2.78;100.00;100864.75;10458730;28;20037;-70
2023/12/06 16:48:31;;;;;;;6.80;3.73;;;;;;;2.79;100.00;100872.53;10456053;28;20080;-69
2023/12/06 16:53:39;;;;;;;10.25;4.90;;;;;;;2.78;100.00;100877.88;10449925;28;20041;-70
2023/12/06 16:59:27;;;;;;;13.02;5.18;;;;;;;2.73;100.00;100876.41;10456461;28;20120;-71
2023/12/06 17:04:31;;;;;;;9.85;3.40;;;;;;;2.66;100.00;100876.94;10458330;28;20411;-69
2023/12/06 17:09:35;;;;;;;9.55;5.18;;;;;;;2.62;100.00;100889.41;10454378;28;20048;-70
2023/12/06 17:14:47;;;;;;;9.88;4.32;;;;;;;2.55;100.00;100866.34;10447478;28;20511;-69
2023/12/06 17:19:51;;;;;;;11.60;3.88;;;;;;;2.55;100.00;100882.91;10425582;28;20045;-69
2023/12/06 17:24:56;;;;;;;8.43;3.83;;;;;;;2.45;100.00;100860.84;10457902;28;20422;-69
2023/12/06 17:30:09;;;;;;;11.85;4.75;;;;;;;1.86;100.00;100777.44;10457683;28;20284;-69
2023/12/06 17:35:12;;;;;;;6.72;3.63;;;;;;;2.35;100.00;100871.13;10456093;28;20083;-69
2023/12/06 17:40:13;;;;;;;9.38;3.78;;;;;;;2.31;100.00;100869.66;10444608;28;20147;-69
2023/12/06 17:45:14;;;;;;;6.32;3.35;;;;;;;1.96;100.00;100827.44;10429778;28;20045;-69
2023/12/06 17:50:15;;;;;;;17.27;5.65;;;;;;;2.04;100.00;100846.97;10448368;28;20041;-69
2023/12/06 17:55:16;;;;;;;6.65;3.25;;;;;;;2.20;100.00;100859.03;10456644;28;20128;-69
2023/12/06 18:00:19;;;;;;;7.65;3.83;;;;;;;2.20;100.00;100856.41;10455936;28;20041;-69
2023/12/06 18:05:21;;;;;;;9.77;3.95;;;;;;;2.15;100.00;100872.44;10456207;28;20094;-69
2023/12/06 18:10:26;;;;;;;6.90;3.35;;;;;;;2.12;100.00;100879.66;10455106;28;20041;-69
2023/12/06 18:15:30;;;;;;;7.38;3.33;;;;;;;2.10;100.00;100877.16;10456374;28;20048;-68
2023/12/06 18:20:34;;;;;;;7.68;4.63;;;;;;;1.80;100.00;100833.69;10455702;28;20076;-69
2023/12/06 18:25:37;;;;;;;6.70;3.30;;;;;;;2.05;100.00;100874.84;10453836;28;20428;-69
2023/12/06 18:30:41;;;;;;;6.95;4.07;;;;;;;1.82;100.00;100850.16;10455341;28;20041;-69
2023/12/06 18:35:42;;;;;;;10.88;3.65;;;;;;;2.01;100.00;100877.78;10455573;28;20052;-68
2023/12/06 18:40:44;;;;;;;9.75;4.60;;;;;;;1.97;100.00;100877.09;10455025;28;20041;-68
2023/12/06 18:45:47;;;;;;;10.38;4.85;;;;;;;1.61;100.00;100817.47;10453963;28;20134;-68
2023/12/06 18:50:49;;;;;;;9.90;4.85;;;;;;;1.93;100.00;100870.41;10454164;28;20033;-68
2023/12/06 18:55:50;;;;;;;10.18;5.47;;;;;;;1.91;100.00;100874.88;10453283;28;20049;-68
2023/12/06 19:00:51;;;;;;;9.32;4.10;;;;;;;1.87;100.00;100870.78;10454708;28;20037;-68
2023/12/06 19:05:52;;;;;;;7.30;3.47;;;;;;;1.40;100.00;100803.97;10453929;28;20037;-68
2023/12/06 19:10:53;;;;;;;6.78;3.88;;;;;;;1.70;100.00;100864.00;10454217;28;20460;-69
2023/12/06 19:15:54;;;;;;;8.45;5.13;;;;;;;1.82;100.00;100878.97;10453710;28;20076;-69
2023/12/06 19:20:55;;;;;;;9.23;5.10;;;;;;;1.77;100.00;100877.56;10454400;28;20409;-69
2023/12/06 19:25:56;;;;;;;8.05;4.43;;;;;;;1.43;100.00;100829.13;10454547;28;20056;-69
2023/12/06 19:30:58;;;;;;;8.40;4.47;;;;;;;1.74;100.00;100875.16;10453801;28;20048;-69
2023/12/06 19:35:59;;;;;;;5.38;3.72;;;;;;;1.68;100.00;100863.28;10452976;28;20087;-69
2023/12/06 19:41:06;;;;;;;9.45;4.55;;;;;;;1.35;100.00;100827.84;10420876;28;20107;-70
2023/12/06 19:46:07;;;;;;;9.93;3.65;;;;;;;1.62;100.00;100879.38;10446013;28;20041;-70
2023/12/06 19:51:08;;;;;;;8.68;3.83;;;;;;;1.56;100.00;100866.69;10453633;28;20516;-70
2023/12/06 19:56:09;;;;;;;7.38;3.85;;;;;;;1.17;100.00;100812.44;10453363;28;20044;-70
2023/12/06 20:01:09;;;;;;;6.15;3.45;;;;;;;1.40;100.00;100865.97;10453503;28;20063;-70
2023/12/06 20:06:10;;;;;;;7.20;4.00;;;;;;;1.39;100.00;100864.28;10453697;28;20120;-70
2023/12/06 20:11:12;;;;;;;5.55;3.60;;;;;;;1.34;100.00;100870.63;10460786;28;20053;-70
2023/12/06 20:16:13;;;;;;;7.95;4.35;;;;;;;1.31;100.00;100859.50;10460716;28;20045;-70
2023/12/06 20:21:14;;;;;;;5.90;3.30;;;;;;;1.27;100.00;100863.28;10460137;28;20041;-70
2023/12/06 20:26:15;;;;;;;7.82;4.22;;;;;;;1.18;100.00;100864.69;10460062;28;20047;-70
2023/12/06 20:31:15;;;;;;;6.85;3.55;;;;;;;0.85;100.00;100816.13;10460654;28;20044;-70
2023/12/06 20:36:17;;;;;;;6.65;3.53;;;;;;;1.19;100.00;100868.97;10459716;28;20052;-71
2023/12/06 20:41:18;;;;;;;7.03;3.47;;;;;;;1.11;100.00;100856.38;10459116;28;20073;-71
2023/12/06 20:46:19;;;;;;;4.90;3.35;;;;;;;1.21;100.00;100858.41;10460139;28;20075;-71
2023/12/06 20:51:19;;;;;;;4.45;2.72;;;;;;;1.18;100.00;100858.63;10459074;28;20681;-67
2023/12/06 20:56:20;;;;;;;7.88;3.70;;;;;;;1.23;100.00;100854.78;10458439;28;20071;-67
2023/12/06 21:01:21;;;;;;;5.07;3.03;;;;;;;1.27;100.00;100858.03;10459066;28;20045;-68
2023/12/06 21:06:22;;;;;;;3.28;2.05;;;;;;;1.24;100.00;100861.69;10457492;28;20040;-67
2023/12/06 21:11:23;;;;;;;4.07;2.72;;;;;;;1.22;100.00;100849.63;10458883;28;20047;-68
2023/12/06 21:16:24;;;;;;;7.13;2.80;;;;;;;1.34;100.00;100862.78;10458218;28;20515;-68
2023/12/06 21:21:24;;;;;;;5.72;2.78;;;;;;;1.34;100.00;100862.78;10457364;28;20048;-68
2023/12/06 21:26:25;;;;;;;4.20;2.70;;;;;;;0.82;100.00;100769.22;10457460;28;20041;-68
2023/12/06 21:31:26;;;;;;;5.28;2.50;;;;;;;0.92;100.00;100779.94;10457936;28;20501;-67
2023/12/06 21:36:27;;;;;;;5.15;3.30;;;;;;;1.10;100.00;100809.34;10456839;28;20481;-67
2023/12/06 21:41:27;;;;;;;5.03;3.28;;;;;;;1.37;100.00;100846.88;10457480;28;20043;-67
2023/12/06 21:46:28;;;;;;;5.82;3.08;;;;;;;1.42;100.00;100853.63;10457251;28;20037;-68
2023/12/06 21:51:29;;;;;;;4.93;2.92;;;;;;;1.41;100.00;100841.44;10456600;28;20045;-68
2023/12/06 21:56:33;;;;;;;4.60;3.13;;;;;;;1.49;100.00;100844.44;10456214;28;20044;-68
2023/12/06 22:01:34;;;;;;;5.28;2.97;;;;;;;0.94;100.00;100754.53;10455373;28;20037;-68
2023/12/06 22:06:35;;;;;;;5.65;2.72;;;;;;;1.48;100.00;100848.00;10456418;28;20049;-69
2023/12/06 22:11:35;;;;;;;5.03;3.15;;;;;;;1.46;100.00;100852.47;10455671;28;20040;-68
2023/12/06 22:16:36;;;;;;;4.10;2.97;;;;;;;1.41;100.00;100844.94;10455939;28;20127;-68
2023/12/06 22:21:37;;;;;;;5.63;2.75;;;;;;;1.38;100.00;100839.91;10455502;28;20049;-68
2023/12/06 22:26:38;;;;;;;4.55;2.58;;;;;;;1.22;100.00;100805.13;10455119;28;20065;-68
2023/12/06 22:31:39;;;;;;;3.42;2.00;;;;;;;1.27;100.00;100813.53;10455129;28;20524;-68
2023/12/06 22:36:41;;;;;;;3.10;2.00;;;;;;;1.17;100.00;100802.81;10455923;28;20044;-68
2023/12/06 22:41:41;;;;;;;3.22;2.00;;;;;;;1.52;100.00;100860.78;10454491;28;20412;-68
2023/12/06 22:46:42;;;;;;;4.80;2.10;;;;;;;1.56;100.00;100861.44;10454952;28;20051;-68